Time;durP1;ratioP1;P1;durP2;ratioP2;P2;SDS_P1;SDS_P2;PMS_P1;PMS_P2;Temp;Humidity;BMP_temperature;BMP_pressure;BME280_temperature;BME280_humidity;BME280_pressure;Samples;Min_cycle;Max_cycle;Signal;HPM_P1;HPM_P2
2021/03/21 00:00:02;;;;;;;;;;;21.60;32.60;;;;;;467985;255;1067;-45
2021/03/21 00:02:03;;;;;;;;;;;21.60;32.60;;;;;;467544;253;1212;-46
2021/03/21 00:04:04;;;;;;;;;;;21.60;32.50;;;;;;468846;252;1095;-45
2021/03/21 00:06:06;;;;;;;;;;;21.60;32.60;;;;;;466987;254;1167;-45
2021/03/21 00:08:07;;;;;;;;;;;21.60;32.60;;;;;;467865;253;1169;-45
2021/03/21 00:10:08;;;;;;;;;;;21.60;32.50;;;;;;467578;253;2161;-45
2021/03/21 00:12:09;;;;;;;;;;;21.60;32.50;;;;;;468824;253;1312;-45
2021/03/21 00:14:11;;;;;;;;;;;21.60;32.60;;;;;;466970;252;1107;-45
2021/03/21 00:16:12;;;;;;;;;;;21.60;32.50;;;;;;467746;253;1234;-45
2021/03/21 00:18:13;;;;;;;;;;;21.60;32.50;;;;;;467590;253;1190;-45
2021/03/21 00:20:15;;;;;;;;;;;21.60;32.50;;;;;;468854;253;1196;-45
2021/03/21 00:22:16;;;;;;;;;;;21.60;32.50;;;;;;467243;252;1673;-45
2021/03/21 00:24:21;;;;;;;;;;;21.60;32.50;;;;;;467847;253;1070;-45
2021/03/21 00:26:22;;;;;;;;;;;21.60;32.60;;;;;;467747;252;1122;-45
2021/03/21 00:28:23;;;;;;;;;;;21.60;32.50;;;;;;468843;252;1519;-45
2021/03/21 00:30:25;;;;;;;;;;;21.60;32.50;;;;;;467163;252;2154;-45
2021/03/21 00:32:26;;;;;;;;;;;21.60;32.50;;;;;;467891;253;1069;-45
2021/03/21 00:34:27;;;;;;;;;;;21.60;32.50;;;;;;467784;254;1139;-45
2021/03/21 00:36:29;;;;;;;;;;;21.70;32.50;;;;;;467774;253;994;-45
2021/03/21 00:38:30;;;;;;;;;;;21.70;32.50;;;;;;468935;253;1227;-45
2021/03/21 00:40:31;;;;;;;;;;;21.70;32.50;;;;;;467069;255;1069;-45
2021/03/21 00:42:33;;;;;;;;;;;21.70;32.50;;;;;;467831;253;1033;-45
2021/03/21 00:44:34;;;;;;;;;;;21.70;32.50;;;;;;469144;253;1250;-45
2021/03/21 00:46:35;;;;;;;;;;;21.70;32.50;;;;;;469526;254;1147;-45
2021/03/21 00:48:36;;;;;;;;;;;21.70;32.50;;;;;;467797;252;1072;-45
2021/03/21 00:50:38;;;;;;;;;;;21.70;32.60;;;;;;468801;252;2237;-45
2021/03/21 00:52:39;;;;;;;;;;;21.70;32.50;;;;;;467013;253;1258;-46
2021/03/21 00:54:40;;;;;;;;;;;21.70;32.50;;;;;;467875;253;1066;-45
2021/03/21 00:56:41;;;;;;;;;;;21.70;32.50;;;;;;467903;254;1076;-45
2021/03/21 00:58:43;;;;;;;;;;;21.70;32.50;;;;;;467902;254;1088;-45
2021/03/21 01:00:44;;;;;;;;;;;21.70;32.50;;;;;;467766;254;1145;-45
2021/03/21 01:02:45;;;;;;;;;;;21.70;32.50;;;;;;467532;252;1109;-45
2021/03/21 01:04:47;;;;;;;;;;;21.70;32.50;;;;;;468784;253;1104;-45
2021/03/21 01:06:48;;;;;;;;;;;21.70;32.50;;;;;;467160;252;1222;-45
2021/03/21 01:08:49;;;;;;;;;;;21.70;32.50;;;;;;467891;253;1195;-45
2021/03/21 01:10:51;;;;;;;;;;;21.70;32.50;;;;;;467848;254;2205;-45
2021/03/21 01:12:52;;;;;;;;;;;21.70;32.40;;;;;;467546;253;1194;-45
2021/03/21 01:14:53;;;;;;;;;;;21.70;32.50;;;;;;468823;253;1053;-45
2021/03/21 01:16:54;;;;;;;;;;;21.70;32.50;;;;;;467031;253;1524;-45
2021/03/21 01:18:56;;;;;;;;;;;21.70;32.50;;;;;;467825;253;1077;-45
2021/03/21 01:20:57;;;;;;;;;;;21.70;32.50;;;;;;467553;252;1140;-45
2021/03/21 01:22:58;;;;;;;;;;;21.70;32.50;;;;;;468821;252;1171;-45
2021/03/21 01:24:59;;;;;;;;;;;21.70;32.50;;;;;;466988;254;1034;-45
2021/03/21 01:27:01;;;;;;;;;;;21.70;32.50;;;;;;467652;253;1192;-45
2021/03/21 01:29:02;;;;;;;;;;;21.70;32.40;;;;;;467552;253;1084;-46
2021/03/21 01:31:03;;;;;;;;;;;21.70;32.50;;;;;;468794;251;2208;-45
2021/03/21 01:33:05;;;;;;;;;;;21.70;32.40;;;;;;467002;253;1186;-45
2021/03/21 01:35:06;;;;;;;;;;;21.70;32.40;;;;;;467855;253;1046;-45
2021/03/21 01:37:07;;;;;;;;;;;21.70;32.40;;;;;;467851;254;1112;-45
2021/03/21 01:39:08;;;;;;;;;;;21.70;32.40;;;;;;467553;253;1207;-45
2021/03/21 01:41:10;;;;;;;;;;;21.70;32.40;;;;;;468859;252;1370;-45
2021/03/21 01:43:11;;;;;;;;;;;21.80;32.40;;;;;;467023;253;1170;-45
2021/03/21 01:45:12;;;;;;;;;;;21.80;32.40;;;;;;467856;253;1096;-45
2021/03/21 01:47:13;;;;;;;;;;;21.80;32.40;;;;;;467883;251;1238;-45
2021/03/21 01:49:15;;;;;;;;;;;21.80;32.40;;;;;;467869;254;1090;-45
2021/03/21 01:51:16;;;;;;;;;;;21.80;32.40;;;;;;467889;251;2199;-45
2021/03/21 01:53:17;;;;;;;;;;;21.80;32.30;;;;;;467882;254;1178;-45
2021/03/21 01:55:19;;;;;;;;;;;21.80;32.40;;;;;;469192;254;1092;-45
2021/03/21 01:57:20;;;;;;;;;;;21.80;32.40;;;;;;469505;254;1180;-45
2021/03/21 01:59:21;;;;;;;;;;;21.80;32.40;;;;;;467849;254;1059;-45
2021/03/21 02:01:23;;;;;;;;;;;21.70;32.30;;;;;;467531;252;1196;-45
2021/03/21 02:03:24;;;;;;;;;;;21.80;32.40;;;;;;469022;253;1229;-45
2021/03/21 02:05:25;;;;;;;;;;;21.80;32.40;;;;;;467047;254;1035;-45
2021/03/21 02:07:27;;;;;;;;;;;21.80;32.40;;;;;;467846;253;1046;-45
2021/03/21 02:09:28;;;;;;;;;;;21.70;32.40;;;;;;467878;254;1265;-45
2021/03/21 02:11:29;;;;;;;;;;;21.80;32.40;;;;;;467785;252;2200;-45
2021/03/21 02:13:30;;;;;;;;;;;21.80;32.40;;;;;;469067;252;1092;-45
2021/03/21 02:15:32;;;;;;;;;;;21.80;32.40;;;;;;466911;253;1062;-45
2021/03/21 02:17:33;;;;;;;;;;;21.80;32.40;;;;;;467800;253;1079;-45
2021/03/21 02:19:34;;;;;;;;;;;21.80;32.40;;;;;;467964;254;1152;-45
2021/03/21 02:21:36;;;;;;;;;;;21.80;32.30;;;;;;467524;253;1104;-46
2021/03/21 02:23:37;;;;;;;;;;;21.80;32.40;;;;;;468828;252;1328;-45
2021/03/21 02:25:38;;;;;;;;;;;21.80;32.40;;;;;;467082;252;1093;-45
2021/03/21 02:27:39;;;;;;;;;;;21.80;32.40;;;;;;467670;255;1296;-45
2021/03/21 02:29:41;;;;;;;;;;;21.80;32.40;;;;;;467619;252;1060;-45
2021/03/21 02:31:42;;;;;;;;;;;21.80;32.30;;;;;;468906;253;2212;-45
2021/03/21 02:33:43;;;;;;;;;;;21.80;32.40;;;;;;467008;253;1054;-45
2021/03/21 02:35:44;;;;;;;;;;;21.80;32.40;;;;;;467858;253;1103;-45
2021/03/21 02:37:47;;;;;;;;;;;21.80;32.40;;;;;;467573;253;1022;-45
2021/03/21 02:39:48;;;;;;;;;;;21.80;32.40;;;;;;469049;253;1178;-46
2021/03/21 02:41:49;;;;;;;;;;;21.80;32.30;;;;;;467160;252;1294;-45
2021/03/21 02:43:51;;;;;;;;;;;21.80;32.30;;;;;;467962;253;1088;-45
2021/03/21 02:45:52;;;;;;;;;;;21.80;32.30;;;;;;467518;251;1050;-45
2021/03/21 02:47:53;;;;;;;;;;;21.80;32.30;;;;;;468899;253;1147;-45
2021/03/21 02:49:54;;;;;;;;;;;21.80;32.30;;;;;;467072;253;1157;-46
2021/03/21 02:51:56;;;;;;;;;;;21.80;32.30;;;;;;467900;253;2129;-45
2021/03/21 02:53:57;;;;;;;;;;;21.80;32.30;;;;;;467887;254;1458;-45
2021/03/21 02:55:58;;;;;;;;;;;21.90;32.40;;;;;;467860;253;1053;-45
2021/03/21 02:57:59;;;;;;;;;;;21.80;32.30;;;;;;468816;253;1272;-45
2021/03/21 03:00:01;;;;;;;;;;;21.80;32.20;;;;;;467098;252;1058;-45
2021/03/21 03:02:02;;;;;;;;;;;21.90;32.30;;;;;;467898;255;1240;-45
2021/03/21 03:04:03;;;;;;;;;;;21.90;32.30;;;;;;467914;254;1114;-45
2021/03/21 03:06:05;;;;;;;;;;;21.90;32.30;;;;;;467847;254;1154;-45
2021/03/21 03:08:06;;;;;;;;;;;21.90;32.30;;;;;;467815;254;1036;-45
2021/03/21 03:10:07;;;;;;;;;;;21.90;32.30;;;;;;467775;254;1244;-45
2021/03/21 03:12:09;;;;;;;;;;;21.90;32.30;;;;;;467534;252;2133;-46
2021/03/21 03:14:10;;;;;;;;;;;21.90;32.30;;;;;;468830;252;958;-45
2021/03/21 03:16:11;;;;;;;;;;;21.90;32.20;;;;;;466931;253;1233;-46
2021/03/21 03:18:12;;;;;;;;;;;21.90;32.20;;;;;;467797;255;1077;-45
2021/03/21 03:20:14;;;;;;;;;;;21.90;32.30;;;;;;467873;254;1057;-45
2021/03/21 03:22:15;;;;;;;;;;;21.90;32.30;;;;;;467749;252;1289;-46
2021/03/21 03:24:16;;;;;;;;;;;21.90;32.30;;;;;;468897;252;1179;-45
2021/03/21 03:26:18;;;;;;;;;;;21.90;32.30;;;;;;466943;253;1232;-45
2021/03/21 03:28:19;;;;;;;;;;;21.90;32.30;;;;;;468111;253;1075;-45
2021/03/21 03:30:20;;;;;;;;;;;21.90;32.30;;;;;;467836;254;1061;-45
2021/03/21 03:32:21;;;;;;;;;;;21.90;32.30;;;;;;467724;254;2196;-45
2021/03/21 03:34:23;;;;;;;;;;;21.90;32.30;;;;;;467794;254;1135;-45
2021/03/21 03:36:24;;;;;;;;;;;21.90;32.30;;;;;;467502;253;1118;-45
2021/03/21 03:38:25;;;;;;;;;;;21.90;32.30;;;;;;468772;253;1016;-45
2021/03/21 03:40:27;;;;;;;;;;;21.90;32.30;;;;;;467001;253;1208;-45
2021/03/21 03:42:28;;;;;;;;;;;21.90;32.30;;;;;;467809;253;1156;-45
2021/03/21 03:44:29;;;;;;;;;;;21.90;32.30;;;;;;467589;252;1133;-45
2021/03/21 03:46:31;;;;;;;;;;;21.90;32.30;;;;;;468855;252;1126;-45
2021/03/21 03:48:32;;;;;;;;;;;21.90;32.30;;;;;;467013;253;1075;-45
2021/03/21 03:50:33;;;;;;;;;;;21.90;32.30;;;;;;467854;253;1030;-45
2021/03/21 03:52:34;;;;;;;;;;;21.90;32.30;;;;;;467546;252;2196;-45
2021/03/21 03:54:36;;;;;;;;;;;21.90;32.30;;;;;;468817;253;1070;-45
2021/03/21 03:56:37;;;;;;;;;;;21.90;32.30;;;;;;466909;252;1164;-45
2021/03/21 03:58:38;;;;;;;;;;;21.90;32.30;;;;;;467795;255;1053;-45
2021/03/21 04:00:40;;;;;;;;;;;21.90;32.30;;;;;;467840;254;1029;-46
2021/03/21 04:02:41;;;;;;;;;;;21.90;32.30;;;;;;467600;252;1231;-45
2021/03/21 04:04:42;;;;;;;;;;;21.90;32.30;;;;;;469012;253;1100;-45
2021/03/21 04:06:43;;;;;;;;;;;21.90;32.30;;;;;;467041;252;1157;-46
2021/03/21 04:08:45;;;;;;;;;;;21.90;32.30;;;;;;468122;253;1098;-46
2021/03/21 04:10:46;;;;;;;;;;;21.90;32.30;;;;;;467901;254;1176;-45
2021/03/21 04:12:47;;;;;;;;;;;21.90;32.30;;;;;;467601;252;2153;-45
2021/03/21 04:14:48;;;;;;;;;;;21.90;32.30;;;;;;468914;253;1112;-45
2021/03/21 04:16:50;;;;;;;;;;;21.90;32.30;;;;;;467065;251;1142;-45
2021/03/21 04:18:51;;;;;;;;;;;21.90;32.30;;;;;;467785;255;1083;-45
2021/03/21 04:20:52;;;;;;;;;;;21.90;32.30;;;;;;467803;254;1073;-45
2021/03/21 04:22:54;;;;;;;;;;;21.90;32.30;;;;;;467848;254;1340;-45
2021/03/21 04:24:55;;;;;;;;;;;21.90;32.30;;;;;;467974;254;1077;-46
2021/03/21 04:26:56;;;;;;;;;;;21.90;32.20;;;;;;467769;254;1183;-45
2021/03/21 04:28:57;;;;;;;;;;;21.90;32.20;;;;;;467709;253;1078;-45
2021/03/21 04:30:59;;;;;;;;;;;21.90;32.20;;;;;;468768;252;1128;-45
2021/03/21 04:33:00;;;;;;;;;;;21.90;32.20;;;;;;466955;252;2200;-45
2021/03/21 04:35:02;;;;;;;;;;;21.90;32.20;;;;;;467850;253;1065;-45
2021/03/21 04:37:03;;;;;;;;;;;21.90;32.30;;;;;;469047;254;1289;-45
2021/03/21 04:39:04;;;;;;;;;;;21.90;32.30;;;;;;469526;254;979;-45
2021/03/21 04:41:05;;;;;;;;;;;21.90;32.20;;;;;;467523;252;1273;-45
2021/03/21 04:43:06;;;;;;;;;;;21.90;32.20;;;;;;469027;253;1015;-45
2021/03/21 04:45:08;;;;;;;;;;;22.00;32.20;;;;;;467001;253;994;-45
2021/03/21 04:47:09;;;;;;;;;;;22.00;32.10;;;;;;467918;253;1068;-45
2021/03/21 04:49:11;;;;;;;;;;;22.00;32.10;;;;;;467637;253;1094;-45
2021/03/21 04:51:12;;;;;;;;;;;22.00;32.10;;;;;;468847;252;1064;-45
2021/03/21 04:53:13;;;;;;;;;;;22.00;32.10;;;;;;467053;253;2142;-45
2021/03/21 04:55:15;;;;;;;;;;;22.00;32.10;;;;;;467874;255;1092;-45
2021/03/21 04:57:16;;;;;;;;;;;22.00;32.10;;;;;;467489;252;1154;-45
2021/03/21 04:59:17;;;;;;;;;;;22.00;32.10;;;;;;468988;252;1088;-45
2021/03/21 05:01:18;;;;;;;;;;;22.00;32.10;;;;;;466935;253;1065;-45
2021/03/21 05:03:20;;;;;;;;;;;22.00;32.20;;;;;;467886;253;1076;-45
2021/03/21 05:05:21;;;;;;;;;;;22.00;32.20;;;;;;467587;248;1176;-45
2021/03/21 05:07:23;;;;;;;;;;;22.00;32.20;;;;;;468840;253;1106;-45
2021/03/21 05:09:24;;;;;;;;;;;22.00;32.10;;;;;;466983;253;966;-45
2021/03/21 05:11:25;;;;;;;;;;;22.00;32.10;;;;;;467887;253;1366;-45
2021/03/21 05:13:27;;;;;;;;;;;22.00;32.10;;;;;;467629;253;2145;-45
2021/03/21 05:15:28;;;;;;;;;;;22.00;32.10;;;;;;468836;253;1193;-45
2021/03/21 05:17:29;;;;;;;;;;;22.00;32.10;;;;;;466952;253;1190;-45
2021/03/21 05:19:30;;;;;;;;;;;22.00;32.10;;;;;;467838;253;1142;-45
2021/03/21 05:21:32;;;;;;;;;;;22.00;32.10;;;;;;467686;252;1172;-45
2021/03/21 05:23:33;;;;;;;;;;;22.00;32.10;;;;;;468865;253;1192;-45
2021/03/21 05:25:34;;;;;;;;;;;22.00;32.10;;;;;;467010;254;1099;-45
2021/03/21 05:27:35;;;;;;;;;;;22.00;32.10;;;;;;467849;253;1184;-45
2021/03/21 05:29:37;;;;;;;;;;;22.00;32.10;;;;;;468054;254;1080;-45
2021/03/21 05:31:38;;;;;;;;;;;22.00;32.10;;;;;;467789;251;1409;-45
2021/03/21 05:33:39;;;;;;;;;;;22.00;32.10;;;;;;467683;252;2129;-45
2021/03/21 05:35:41;;;;;;;;;;;22.00;32.10;;;;;;468971;253;1076;-45
2021/03/21 05:37:42;;;;;;;;;;;22.00;32.10;;;;;;466976;252;1200;-45
2021/03/21 05:39:43;;;;;;;;;;;22.00;32.10;;;;;;467826;255;1070;-45
2021/03/21 05:41:44;;;;;;;;;;;22.00;32.10;;;;;;467662;252;1331;-45
2021/03/21 05:43:46;;;;;;;;;;;22.00;32.10;;;;;;469186;252;1086;-45
2021/03/21 05:45:47;;;;;;;;;;;22.00;32.10;;;;;;467097;252;1214;-45
2021/03/21 05:47:48;;;;;;;;;;;22.00;32.10;;;;;;467747;253;1239;-45
2021/03/21 05:49:49;;;;;;;;;;;22.00;32.10;;;;;;467854;254;1000;-45
2021/03/21 05:51:53;;;;;;;;;;;22.00;32.10;;;;;;467759;254;1171;-45
2021/03/21 05:53:52;;;;;;;;;;;22.00;32.20;;;;;;468094;254;2196;-45
2021/03/21 05:55:54;;;;;;;;;;;22.00;32.10;;;;;;467479;253;1142;-45
2021/03/21 05:57:55;;;;;;;;;;;22.00;32.10;;;;;;468813;252;1227;-45
2021/03/21 05:59:56;;;;;;;;;;;22.10;32.10;;;;;;467069;254;1047;-45
2021/03/21 06:01:57;;;;;;;;;;;22.00;32.10;;;;;;467897;253;1138;-45
2021/03/21 06:03:59;;;;;;;;;;;22.00;32.10;;;;;;467540;253;1096;-45
2021/03/21 06:06:00;;;;;;;;;;;22.00;32.10;;;;;;468932;252;1415;-45
2021/03/21 06:08:02;;;;;;;;;;;22.00;32.10;;;;;;467060;252;1094;-45
2021/03/21 06:10:03;;;;;;;;;;;22.00;32.10;;;;;;467762;255;1074;-45
2021/03/21 06:12:04;;;;;;;;;;;22.00;32.10;;;;;;467896;254;1267;-45
2021/03/21 06:14:06;;;;;;;;;;;22.00;32.10;;;;;;467612;253;2183;-45
2021/03/21 06:16:07;;;;;;;;;;;22.00;32.10;;;;;;468788;252;1355;-45
2021/03/21 06:18:08;;;;;;;;;;;22.00;32.10;;;;;;467042;254;1050;-45
2021/03/21 06:20:09;;;;;;;;;;;22.00;32.20;;;;;;467660;255;1047;-45
2021/03/21 06:22:11;;;;;;;;;;;22.00;32.20;;;;;;467560;252;1135;-45
2021/03/21 06:24:12;;;;;;;;;;;22.00;32.10;;;;;;469147;254;1102;-45
2021/03/21 06:26:13;;;;;;;;;;;22.00;32.10;;;;;;467007;254;1018;-45
2021/03/21 06:28:14;;;;;;;;;;;22.00;32.10;;;;;;467912;253;1202;-45
2021/03/21 06:30:16;;;;;;;;;;;22.00;32.20;;;;;;467895;254;1087;-45
2021/03/21 06:32:17;;;;;;;;;;;22.00;32.10;;;;;;467469;252;2204;-45
2021/03/21 06:34:19;;;;;;;;;;;22.00;32.10;;;;;;468880;253;1044;-45
2021/03/21 06:36:20;;;;;;;;;;;22.00;32.10;;;;;;467168;253;1110;-45
2021/03/21 06:38:21;;;;;;;;;;;22.00;32.10;;;;;;468025;255;1075;-45
2021/03/21 06:40:23;;;;;;;;;;;22.00;32.10;;;;;;467811;254;1268;-45
2021/03/21 06:42:24;;;;;;;;;;;22.00;32.10;;;;;;467835;254;1225;-45
2021/03/21 06:44:25;;;;;;;;;;;22.00;32.10;;;;;;469141;254;1130;-45
2021/03/21 06:46:27;;;;;;;;;;;22.00;32.10;;;;;;469583;253;1180;-45
2021/03/21 06:48:28;;;;;;;;;;;22.10;32.20;;;;;;469184;254;1072;-46
2021/03/21 06:50:29;;;;;;;;;;;22.00;32.10;;;;;;469731;253;1042;-45
2021/03/21 06:52:30;;;;;;;;;;;22.00;32.10;;;;;;469170;254;2164;-45
2021/03/21 06:54:32;;;;;;;;;;;22.00;32.10;;;;;;469645;253;1088;-45
2021/03/21 06:56:33;;;;;;;;;;;22.00;32.20;;;;;;467559;253;1213;-45
2021/03/21 06:58:34;;;;;;;;;;;22.10;32.20;;;;;;468792;252;1235;-45
2021/03/21 07:00:36;;;;;;;;;;;22.10;32.10;;;;;;466979;253;1128;-45
2021/03/21 07:02:37;;;;;;;;;;;22.00;32.10;;;;;;468038;253;1328;-45
2021/03/21 07:04:38;;;;;;;;;;;22.00;32.10;;;;;;467961;254;1075;-45
2021/03/21 07:06:39;;;;;;;;;;;22.00;32.10;;;;;;467527;252;1063;-45
2021/03/21 07:08:41;;;;;;;;;;;22.00;32.20;;;;;;469082;253;1295;-45
2021/03/21 07:10:42;;;;;;;;;;;22.00;32.20;;;;;;467014;252;1016;-46
2021/03/21 07:12:43;;;;;;;;;;;22.00;32.10;;;;;;467997;253;2209;-45
2021/03/21 07:14:44;;;;;;;;;;;22.00;32.10;;;;;;467630;252;1152;-45
2021/03/21 07:16:46;;;;;;;;;;;22.00;32.20;;;;;;468836;253;1035;-45
2021/03/21 07:18:47;;;;;;;;;;;22.00;32.20;;;;;;467137;253;1197;-46
2021/03/21 07:20:48;;;;;;;;;;;22.00;32.20;;;;;;467799;255;1073;-45
2021/03/21 07:22:50;;;;;;;;;;;22.00;32.20;;;;;;467595;252;1079;-45
2021/03/21 07:24:51;;;;;;;;;;;22.00;32.20;;;;;;468930;252;1116;-45
2021/03/21 07:26:52;;;;;;;;;;;22.00;32.10;;;;;;467022;252;1592;-45
2021/03/21 07:28:54;;;;;;;;;;;22.00;32.10;;;;;;467921;253;1172;-45
2021/03/21 07:30:55;;;;;;;;;;;22.00;32.10;;;;;;467615;252;1070;-45
2021/03/21 07:32:56;;;;;;;;;;;22.00;32.10;;;;;;468930;253;2148;-45
2021/03/21 07:34:57;;;;;;;;;;;22.00;32.20;;;;;;467024;253;1183;-45
2021/03/21 07:36:59;;;;;;;;;;;22.00;32.10;;;;;;467934;253;1114;-45
2021/03/21 07:39:00;;;;;;;;;;;22.10;32.20;;;;;;467881;254;1052;-45
2021/03/21 07:41:01;;;;;;;;;;;22.00;32.10;;;;;;467822;254;1255;-45
2021/03/21 07:43:02;;;;;;;;;;;22.00;32.10;;;;;;467644;252;1155;-45
2021/03/21 07:45:04;;;;;;;;;;;22.00;32.20;;;;;;468770;253;1096;-45
2021/03/21 07:47:05;;;;;;;;;;;22.00;32.10;;;;;;467090;253;1090;-45
2021/03/21 07:49:06;;;;;;;;;;;22.00;32.20;;;;;;467867;253;1039;-45
2021/03/21 07:51:08;;;;;;;;;;;22.00;32.10;;;;;;467599;252;1107;-45
2021/03/21 07:53:09;;;;;;;;;;;22.00;32.10;;;;;;468932;252;2162;-45
2021/03/21 07:55:11;;;;;;;;;;;22.00;32.20;;;;;;467090;252;975;-45
2021/03/21 07:57:12;;;;;;;;;;;22.00;32.10;;;;;;467820;253;1051;-45
2021/03/21 07:59:13;;;;;;;;;;;22.00;32.10;;;;;;467681;253;1170;-45
2021/03/21 08:01:15;;;;;;;;;;;22.00;32.10;;;;;;468979;252;1038;-45
2021/03/21 08:03:16;;;;;;;;;;;22.00;32.20;;;;;;467096;252;1095;-45
2021/03/21 08:05:18;;;;;;;;;;;22.00;32.20;;;;;;467845;253;1101;-45
2021/03/21 08:07:19;;;;;;;;;;;22.00;32.20;;;;;;467985;254;1080;-45
2021/03/21 08:09:20;;;;;;;;;;;22.00;32.20;;;;;;467819;254;1139;-45
2021/03/21 08:11:21;;;;;;;;;;;22.00;32.20;;;;;;467667;251;1128;-45
2021/03/21 08:13:23;;;;;;;;;;;22.00;32.20;;;;;;467774;254;2154;-45
2021/03/21 08:15:24;;;;;;;;;;;22.00;32.30;;;;;;467866;254;1102;-45
2021/03/21 08:17:25;;;;;;;;;;;22.10;32.10;;;;;;469110;254;1346;-45
2021/03/21 08:19:27;;;;;;;;;;;21.90;32.30;;;;;;469628;253;1054;-45
2021/03/21 08:21:28;;;;;;;;;;;21.30;33.10;;;;;;467862;254;1337;-45
2021/03/21 08:23:29;;;;;;;;;;;20.70;34.20;;;;;;467551;253;1217;-45
2021/03/21 08:25:32;;;;;;;;;;;20.30;35.00;;;;;;468848;252;1109;-45
2021/03/21 08:27:32;;;;;;;;;;;20.00;35.50;;;;;;466912;252;1830;-45
2021/03/21 08:29:33;;;;;;;;;;;19.80;35.90;;;;;;467934;253;1169;-45
2021/03/21 08:31:34;;;;;;;;;;;19.60;36.30;;;;;;469225;250;1301;-45
2021/03/21 08:33:36;;;;;;;;;;;19.50;36.50;;;;;;469561;253;2153;-45
2021/03/21 08:35:37;;;;;;;;;;;19.30;36.70;;;;;;467536;253;1128;-45
2021/03/21 08:37:38;;;;;;;;;;;19.30;36.90;;;;;;468954;253;1325;-45
2021/03/21 08:39:39;;;;;;;;;;;19.20;37.00;;;;;;467268;252;1078;-45
2021/03/21 08:41:41;;;;;;;;;;;19.20;37.10;;;;;;467890;253;1048;-44
2021/03/21 08:43:42;;;;;;;;;;;19.10;37.30;;;;;;467804;254;1142;-45
2021/03/21 08:45:43;;;;;;;;;;;19.00;37.30;;;;;;467561;252;1108;-45
2021/03/21 08:47:44;;;;;;;;;;;18.90;37.30;;;;;;469023;253;1163;-45
2021/03/21 08:49:46;;;;;;;;;;;18.90;37.50;;;;;;467103;252;1098;-45
2021/03/21 08:51:47;;;;;;;;;;;18.80;37.60;;;;;;467939;253;1091;-45
2021/03/21 08:53:48;;;;;;;;;;;18.80;37.70;;;;;;467755;254;2196;-45
2021/03/21 08:55:50;;;;;;;;;;;18.80;37.70;;;;;;467834;254;1067;-45
2021/03/21 08:57:51;;;;;;;;;;;18.70;37.80;;;;;;467535;252;1101;-45
2021/03/21 08:59:52;;;;;;;;;;;18.70;37.80;;;;;;468867;253;1141;-45
2021/03/21 09:01:53;;;;;;;;;;;18.60;37.80;;;;;;466983;252;1337;-45
2021/03/21 09:03:55;;;;;;;;;;;18.60;37.90;;;;;;467874;255;1077;-45
2021/03/21 09:05:56;;;;;;;;;;;18.60;37.90;;;;;;469209;254;1131;-45
2021/03/21 09:07:57;;;;;;;;;;;18.60;37.90;;;;;;469526;254;1037;-45
2021/03/21 09:09:59;;;;;;;;;;;18.50;37.90;;;;;;469117;254;1255;-45
2021/03/21 09:12:00;;;;;;;;;;;18.50;37.90;;;;;;469805;254;1262;-45
2021/03/21 09:14:01;;;;;;;;;;;18.50;38.00;;;;;;467664;253;2149;-45
2021/03/21 09:16:03;;;;;;;;;;;18.50;38.10;;;;;;468914;253;1127;-45
2021/03/21 09:18:04;;;;;;;;;;;18.50;38.10;;;;;;466963;253;1202;-45
2021/03/21 09:20:05;;;;;;;;;;;18.40;38.10;;;;;;468048;253;1078;-44
2021/03/21 09:22:06;;;;;;;;;;;18.40;38.10;;;;;;467746;254;1386;-45
2021/03/21 09:24:09;;;;;;;;;;;18.40;38.10;;;;;;468107;254;1097;-45
2021/03/21 09:26:09;;;;;;;;;;;18.40;38.20;;;;;;469261;254;1474;-45
2021/03/21 09:28:11;;;;;;;;;;;18.40;38.10;;;;;;469589;254;1043;-45
2021/03/21 09:30:12;;;;;;;;;;;18.30;38.10;;;;;;469164;254;1185;-45
2021/03/21 09:32:13;;;;;;;;;;;18.30;38.20;;;;;;469556;254;1347;-45
2021/03/21 09:34:15;;;;;;;;;;;18.30;38.10;;;;;;467909;254;2192;-44
2021/03/21 09:36:16;;;;;;;;;;;18.30;38.20;;;;;;467773;254;1461;-45
2021/03/21 09:38:17;;;;;;;;;;;18.30;38.30;;;;;;467800;254;1046;-44
2021/03/21 09:40:18;;;;;;;;;;;18.20;38.20;;;;;;467884;254;1091;-45
2021/03/21 09:42:20;;;;;;;;;;;18.20;38.10;;;;;;467776;254;1194;-45
2021/03/21 09:44:21;;;;;;;;;;;18.20;38.30;;;;;;467757;254;1566;-45
2021/03/21 09:46:22;;;;;;;;;;;18.10;38.40;;;;;;469055;254;1106;-45
2021/03/21 09:48:24;;;;;;;;;;;18.10;38.30;;;;;;469596;253;1132;-45
2021/03/21 09:50:25;;;;;;;;;;;18.10;38.40;;;;;;469366;254;1062;-45
2021/03/21 09:52:26;;;;;;;;;;;18.10;38.40;;;;;;469597;253;1088;-45
2021/03/21 09:54:27;;;;;;;;;;;18.10;38.50;;;;;;467768;254;2208;-45
2021/03/21 09:56:29;;;;;;;;;;;18.00;38.40;;;;;;467953;254;1048;-45
2021/03/21 09:58:30;;;;;;;;;;;18.00;38.50;;;;;;467565;253;1133;-45
2021/03/21 10:00:32;;;;;;;;;;;18.00;38.50;;;;;;468902;253;1160;-45
2021/03/21 10:02:33;;;;;;;;;;;18.00;38.50;;;;;;467121;254;1102;-44
2021/03/21 10:04:35;;;;;;;;;;;18.00;38.50;;;;;;467934;253;1056;-45
2021/03/21 10:06:36;;;;;;;;;;;18.00;38.50;;;;;;468078;254;1081;-45
2021/03/21 10:08:37;;;;;;;;;;;18.00;38.50;;;;;;467557;254;1144;-45
2021/03/21 10:10:38;;;;;;;;;;;17.90;38.50;;;;;;469248;252;1111;-45
2021/03/21 10:12:40;;;;;;;;;;;17.90;38.50;;;;;;466973;253;1081;-45
2021/03/21 10:14:41;;;;;;;;;;;17.90;38.50;;;;;;467835;253;2188;-45
2021/03/21 10:16:42;;;;;;;;;;;18.00;38.50;;;;;;467614;252;1154;-45
2021/03/21 10:18:44;;;;;;;;;;;18.30;37.90;;;;;;469072;252;1082;-45
2021/03/21 10:20:45;;;;;;;;;;;18.70;37.00;;;;;;466916;252;1086;-45
2021/03/21 10:22:46;;;;;;;;;;;19.10;36.20;;;;;;467748;255;1129;-45
2021/03/21 10:24:47;;;;;;;;;;;19.40;35.60;;;;;;467805;254;1042;-45
2021/03/21 10:26:49;;;;;;;;;;;19.60;35.20;;;;;;467727;252;1098;-45
2021/03/21 10:28:50;;;;;;;;;;;19.80;35.00;;;;;;468863;252;1020;-45
2021/03/21 10:30:51;;;;;;;;;;;19.90;34.70;;;;;;466970;252;1377;-45
2021/03/21 10:32:53;;;;;;;;;;;19.90;34.50;;;;;;468070;253;1057;-45
2021/03/21 10:34:54;;;;;;;;;;;20.00;34.40;;;;;;467797;254;2152;-45
2021/03/21 10:36:55;;;;;;;;;;;20.10;34.30;;;;;;467634;252;1152;-45
2021/03/21 10:38:58;;;;;;;;;;;20.20;34.20;;;;;;468821;253;1601;-45
2021/03/21 10:40:58;;;;;;;;;;;20.20;34.10;;;;;;467069;251;2069;-45
2021/03/21 10:42:59;;;;;;;;;;;20.30;34.10;;;;;;467822;253;1090;-45
2021/03/21 10:45:00;;;;;;;;;;;20.30;34.00;;;;;;467613;253;1279;-45
2021/03/21 10:47:01;;;;;;;;;;;20.30;33.90;;;;;;468913;253;1087;-45
2021/03/21 10:49:03;;;;;;;;;;;20.40;33.80;;;;;;467085;252;1063;-45
2021/03/21 10:51:04;;;;;;;;;;;20.40;33.70;;;;;;467977;253;984;-45
2021/03/21 10:53:05;;;;;;;;;;;20.50;33.70;;;;;;467825;254;1113;-45
2021/03/21 10:55:07;;;;;;;;;;;20.50;33.60;;;;;;467847;254;2160;-45
2021/03/21 10:57:08;;;;;;;;;;;20.60;33.50;;;;;;467466;253;1069;-45
2021/03/21 10:59:09;;;;;;;;;;;20.60;33.50;;;;;;468942;253;1066;-45
2021/03/21 11:01:10;;;;;;;;;;;20.60;33.40;;;;;;467030;253;1193;-45
2021/03/21 11:03:12;;;;;;;;;;;20.60;33.30;;;;;;467921;255;1070;-45
2021/03/21 11:05:13;;;;;;;;;;;20.70;33.30;;;;;;469172;254;1082;-45
2021/03/21 11:07:14;;;;;;;;;;;20.70;33.30;;;;;;469767;253;1214;-45
2021/03/21 11:09:16;;;;;;;;;;;20.70;33.20;;;;;;469195;254;1042;-45
2021/03/21 11:11:17;;;;;;;;;;;20.80;33.20;;;;;;469568;254;1106;-45
2021/03/21 11:13:18;;;;;;;;;;;20.80;33.10;;;;;;469291;254;1092;-45
2021/03/21 11:15:19;;;;;;;;;;;20.80;33.10;;;;;;469542;253;2157;-45
2021/03/21 11:17:21;;;;;;;;;;;20.90;33.10;;;;;;467510;253;1046;-45
2021/03/21 11:19:22;;;;;;;;;;;20.90;33.00;;;;;;469004;252;1072;-45
2021/03/21 11:21:24;;;;;;;;;;;20.90;33.00;;;;;;466965;254;1055;-46
2021/03/21 11:23:25;;;;;;;;;;;20.90;33.00;;;;;;467852;253;1066;-45
2021/03/21 11:25:26;;;;;;;;;;;20.90;32.90;;;;;;467501;252;1040;-45
2021/03/21 11:27:27;;;;;;;;;;;20.90;32.90;;;;;;468790;252;1013;-45
2021/03/21 11:29:28;;;;;;;;;;;21.00;32.90;;;;;;467104;253;1068;-45
2021/03/21 11:31:30;;;;;;;;;;;21.00;32.90;;;;;;467859;253;1205;-45
2021/03/21 11:33:31;;;;;;;;;;;21.00;32.90;;;;;;467540;253;988;-45
2021/03/21 11:35:32;;;;;;;;;;;21.00;32.80;;;;;;468814;253;2160;-45
2021/03/21 11:37:33;;;;;;;;;;;21.00;32.80;;;;;;467036;253;1320;-45
2021/03/21 11:39:35;;;;;;;;;;;21.00;32.80;;;;;;467939;253;1030;-45
2021/03/21 11:41:37;;;;;;;;;;;21.00;32.70;;;;;;467774;254;1137;-45
2021/03/21 11:43:38;;;;;;;;;;;21.00;32.70;;;;;;467563;252;1082;-45
2021/03/21 11:45:39;;;;;;;;;;;21.00;32.70;;;;;;468799;253;1334;-45
2021/03/21 11:47:40;;;;;;;;;;;21.10;32.70;;;;;;467021;252;1044;-46
2021/03/21 11:49:42;;;;;;;;;;;21.10;32.70;;;;;;467821;253;1083;-45
2021/03/21 11:51:43;;;;;;;;;;;21.10;32.70;;;;;;467546;253;1135;-45
2021/03/21 11:53:44;;;;;;;;;;;21.10;32.70;;;;;;468854;252;1103;-45
2021/03/21 11:55:46;;;;;;;;;;;21.10;32.70;;;;;;467153;254;2164;-45